Time;durP1;ratioP1;P1;durP2;ratioP2;P2;SDS_P1;SDS_P2;PMS_P1;PMS_P2;Temp;Humidity;BMP_temperature;BMP_pressure;BME280_temperature;BME280_humidity;BME280_pressure;Samples;Min_cycle;Max_cycle;Signal;HPM_P1;HPM_P2
2021/12/12 05:08:55;;;;;;;20.57;7.77;;;;;;;7.34;59.50;99777.94;6766362;29;20221;-86
2021/12/12 05:12:22;;;;;;;10.17;7.03;;;;;;;7.44;59.68;99788.53;6767372;29;20617;-86
2021/12/12 05:15:47;;;;;;;11.50;7.70;;;;;;;7.57;59.54;99787.06;6775562;29;20623;-87
2021/12/12 05:19:15;;;;;;;9.67;7.40;;;;;;;7.57;59.37;99795.13;6772458;29;20227;-86
2021/12/12 05:22:41;;;;;;;10.47;8.40;;;;;;;6.71;60.90;99797.16;6810263;28;20787;-86
2021/12/12 05:26:06;;;;;;;9.87;6.80;;;;;;;6.55;61.58;99789.81;6877575;28;20607;-87
2021/12/12 05:34:40;;;;;;;6.87;6.07;;;;;;;7.58;58.90;99791.44;6800762;29;20354;-86
2021/12/12 06:00:01;;;;;;;8.77;6.33;;;;;;;7.39;57.38;99796.22;6606891;29;20301;-87
2021/12/12 06:35:22;;;;;;;6.03;5.43;;;;;;;6.10;58.65;99775.72;6531271;30;20620;-85
2021/12/12 06:38:49;;;;;;;6.03;5.43;;;;;;;6.75;57.07;99831.53;6729511;29;20598;-83
2021/12/12 06:42:13;;;;;;;12.67;6.17;;;;;;;6.75;56.46;99811.91;6756795;29;20221;-87
2021/12/12 07:49:31;;;;;;;10.57;7.40;;;;;;;6.06;57.30;99889.47;6364558;31;20258;-88
2021/12/12 07:53:02;;;;;;;8.73;7.17;;;;;;;6.11;57.69;99884.50;6436905;30;20251;-86
2021/12/12 07:56:32;;;;;;;7.70;6.90;;;;;;;5.84;58.21;99841.69;6520315;30;20216;-86
2021/12/12 08:30:04;;;;;;;7.10;5.80;;;;;;;8.11;54.61;99869.81;6456435;30;20401;-88
2021/12/12 08:33:43;;;;;;;7.43;5.53;;;;;;;8.33;53.31;99869.22;6509043;30;20304;-87
2021/12/12 08:40:49;;;;;;;5.37;4.83;;;;;;;9.39;50.32;99862.63;6505019;30;20290;-86
2021/12/12 08:44:14;;;;;;;7.30;5.50;;;;;;;9.04;49.80;99860.34;6502885;30;20214;-86
2021/12/12 08:47:53;;;;;;;6.47;5.50;;;;;;;9.01;50.75;99864.38;6512880;30;20218;-85
2021/12/12 08:51:22;;;;;;;6.87;5.60;;;;;;;8.52;51.67;99838.50;6614081;29;20237;-85
2021/12/12 08:59:19;;;;;;;7.70;6.20;;;;;;;8.96;50.64;99869.44;6693531;29;20276;-85
2021/12/12 09:02:41;;;;;;;7.87;5.90;;;;;;;8.77;51.12;99854.47;6703245;29;20243;-85
2021/12/12 09:06:04;;;;;;;5.87;5.37;;;;;;;8.58;49.96;99867.38;6763410;29;20203;-85
2021/12/12 09:09:30;;;;;;;7.30;5.93;;;;;;;7.64;51.84;99811.41;6836880;29;20254;-86
2021/12/12 09:13:18;;;;;;;7.60;5.53;;;;;;;8.61;50.67;99865.22;6865270;28;20231;-87
2021/12/12 09:16:42;;;;;;;6.40;4.90;;;;;;;7.44;51.94;99832.31;6834673;29;20330;-87
2021/12/12 09:20:09;;;;;;;5.37;4.87;;;;;;;8.60;51.05;99878.84;6847978;28;20285;-87
2021/12/12 09:23:36;;;;;;;6.37;5.67;;;;;;;8.67;50.24;99816.16;6854844;29;20214;-86
2021/12/12 09:27:02;;;;;;;6.47;4.80;;;;;;;8.30;50.11;99823.88;6866108;28;20194;-86
2021/12/12 09:30:26;;;;;;;5.80;5.10;;;;;;;9.20;49.64;99881.00;6846277;29;20395;-87
2021/12/12 09:33:50;;;;;;;5.43;4.47;;;;;;;8.62;49.78;99876.81;6842665;28;20255;-86
2021/12/12 09:37:14;;;;;;;6.10;4.63;;;;;;;8.70;49.70;99841.84;6847670;28;20210;-88
2021/12/12 09:41:04;;;;;;;6.37;4.50;;;;;;;9.25;49.18;99860.66;6843121;29;20233;-89
2021/12/12 09:44:49;;;;;;;5.53;4.80;;;;;;;9.50;48.89;99866.81;6842469;29;20209;-87
2021/12/12 09:52:45;;;;;;;4.63;4.10;;;;;;;9.58;47.81;99877.56;6858432;28;20590;-87
2021/12/12 09:56:16;;;;;;;4.30;3.90;;;;;;;8.40;49.31;99870.25;6873011;28;20204;-86
2021/12/12 09:59:58;;;;;;;4.47;4.07;;;;;;;9.13;48.86;99862.00;6858924;28;20202;-87
2021/12/12 10:03:23;;;;;;;4.30;3.90;;;;;;;9.72;47.46;99852.59;6855746;28;20234;-87
2021/12/12 10:06:50;;;;;;;4.33;3.83;;;;;;;9.37;48.09;99781.22;6852827;28;20217;-86
2021/12/12 10:10:17;;;;;;;4.70;4.30;;;;;;;9.91;48.03;99844.09;6864970;28;20275;-84
2021/12/12 10:13:45;;;;;;;5.80;4.03;;;;;;;9.50;48.97;99813.81;6876641;28;20230;-86
2021/12/12 10:17:12;;;;;;;6.07;5.33;;;;;;;9.93;48.77;99831.31;6872062;28;20209;-84
2021/12/12 10:20:39;;;;;;;4.57;3.67;;;;;;;9.01;47.83;99826.72;6868699;28;20700;-87
2021/12/12 10:24:22;;;;;;;72.33;30.33;;;;;;;9.75;48.22;99834.22;6871737;28;20208;-85
2021/12/12 10:27:47;;;;;;;46.60;20.07;;;;;;;9.73;47.50;99838.97;6861335;28;20202;-84
2021/12/12 10:31:26;;;;;;;75.07;29.80;;;;;;;10.11;47.51;99843.50;6869409;28;20231;-83
2021/12/12 10:34:59;;;;;;;3.70;3.40;;;;;;;9.88;45.47;99828.28;6866840;28;20206;-85
2021/12/12 10:43:27;;;;;;;157.83;51.83;;;;;;;10.75;47.24;99829.56;6851970;28;20245;-87
2021/12/12 11:03:46;;;;;;;4.87;3.10;;;;;;;10.48;45.23;99837.38;6806858;29;20213;-87
2021/12/12 11:07:46;;;;;;;3.70;3.40;;;;;;;10.79;44.76;99833.59;6819118;29;20216;-87
2021/12/12 11:11:12;;;;;;;3.20;2.90;;;;;;;10.52;45.75;99801.78;6797115;29;20720;-89
2021/12/12 11:14:57;;;;;;;2.93;2.73;;;;;;;10.84;44.67;99827.66;6793848;29;20210;-86
2021/12/12 11:22:37;;;;;;;4.87;3.50;;;;;;;10.53;44.25;99787.31;6789678;29;20249;-85
2021/12/12 11:26:02;;;;;;;3.40;3.10;;;;;;;10.10;44.60;99755.59;6804506;29;20227;-83
2021/12/12 11:29:33;;;;;;;3.80;3.23;;;;;;;10.71;45.01;99801.31;6867630;28;20219;-86
2021/12/12 11:33:00;;;;;;;3.43;3.13;;;;;;;10.69;44.54;99767.44;6875133;28;20233;-85
2021/12/12 11:36:36;;;;;;;;;;;;;;;;;;;;;
2021/12/12 11:40:13;;;;;;;4.30;3.53;;;;;;;10.95;44.51;99800.22;6868343;28;20220;-84
2021/12/12 11:43:38;;;;;;;4.00;3.00;;;;;;;11.23;44.33;99801.31;6874659;28;20213;-83
2021/12/12 11:47:11;;;;;;;7.60;3.90;;;;;;;11.19;43.24;99800.84;6877142;28;20227;-84
2021/12/12 11:50:59;;;;;;;5.47;3.10;;;;;;;11.25;43.82;99788.44;6874694;28;20242;-85
2021/12/12 11:54:35;;;;;;;4.10;3.30;;;;;;;10.95;44.34;99801.09;6852374;29;20206;-85
2021/12/12 11:58:06;;;;;;;3.63;2.80;;;;;;;11.35;43.54;99787.16;6854119;29;20197;-88
2021/12/12 12:01:33;;;;;;;3.30;3.00;;;;;;;11.07;43.50;99778.03;6855116;29;20239;-89
2021/12/12 12:05:03;;;;;;;3.27;3.07;;;;;;;11.34;43.02;99768.44;6853253;29;20235;-85
2021/12/12 12:08:29;;;;;;;2.93;2.63;;;;;;;11.19;42.95;99775.69;6855169;29;20208;-86
2021/12/12 12:12:10;;;;;;;3.37;2.90;;;;;;;11.00;43.69;99777.09;6842246;29;20226;-86
2021/12/12 12:15:41;;;;;;;3.63;2.90;;;;;;;10.68;45.00;99728.03;6851616;29;20210;-86
2021/12/12 12:19:08;;;;;;;3.00;2.80;;;;;;;10.73;43.13;99709.41;6854162;29;20202;-86
2021/12/12 12:22:38;;;;;;;3.97;3.03;;;;;;;11.59;42.76;99768.00;6854295;29;21310;-86
2021/12/12 12:30:22;;;;;;;3.10;2.80;;;;;;;11.81;42.24;99766.19;6854425;29;20228;-85
2021/12/12 12:38:49;;;;;;;3.20;2.90;;;;;;;11.25;44.11;99762.31;6852889;29;20446;-85
2021/12/12 12:42:53;;;;;;;3.60;2.63;;;;;;;11.19;43.68;99730.66;6769572;29;20237;-86
2021/12/12 12:47:07;;;;;;;3.30;3.00;;;;;;;11.14;44.21;99767.31;6807417;29;20206;-87
2021/12/12 12:50:58;;;;;;;;;;;;;;;;;;;;;
2021/12/12 12:54:32;;;;;;;3.30;3.03;;;;;;;11.01;43.88;99734.75;6877125;28;20204;-86
2021/12/12 12:57:56;;;;;;;2.63;2.43;;;;;;;11.64;41.79;99752.03;6878220;28;20206;-86
2021/12/12 13:01:22;;;;;;;2.90;2.60;;;;;;;11.18;42.20;99755.13;6878708;28;20219;-86
2021/12/12 13:04:49;;;;;;;4.60;3.20;;;;;;;11.03;42.37;99738.94;6879866;28;20211;-87
2021/12/12 13:08:36;;;;;;;2.90;2.70;;;;;;;11.26;42.13;99744.22;6873768;28;20329;-86
2021/12/12 13:12:17;;;;;;;3.50;2.80;;;;;;;11.66;41.90;99701.38;6872580;28;20236;-86
2021/12/12 13:15:54;;;;;;;3.27;2.93;;;;;;;11.31;41.34;99691.38;6876517;28;20197;-86
2021/12/12 13:19:26;;;;;;;2.60;2.40;;;;;;;12.02;40.96;99717.56;6875817;28;20211;-86
2021/12/12 13:22:51;;;;;;;4.93;3.97;;;;;;;11.60;41.86;99696.75;6869813;28;20221;-86
2021/12/12 13:26:17;;;;;;;2.77;2.50;;;;;;;12.01;40.69;99729.41;6869226;28;20676;-84
2021/12/12 13:29:59;;;;;;;3.67;2.60;;;;;;;12.06;40.53;99686.44;6871966;28;20215;-85
2021/12/12 13:33:27;;;;;;;3.23;2.60;;;;;;;11.94;39.81;99693.38;6868071;28;20231;-85
2021/12/12 13:36:59;;;;;;;2.37;2.20;;;;;;;12.14;40.18;99722.28;6873345;28;20192;-86
2021/12/12 13:40:25;;;;;;;3.83;2.50;;;;;;;11.95;40.26;99725.63;6867931;28;20203;-85
2021/12/12 13:43:52;;;;;;;3.47;3.17;;;;;;;11.51;41.38;99710.53;6865600;28;20205;-85
2021/12/12 13:47:20;;;;;;;2.53;2.30;;;;;;;11.97;41.01;99720.00;6860848;28;20668;-85
2021/12/12 13:50:49;;;;;;;3.67;3.10;;;;;;;11.79;39.90;99731.25;6867471;28;20229;-85
2021/12/12 13:54:21;;;;;;;4.77;3.10;;;;;;;11.88;41.07;99735.53;6867920;28;20281;-85
2021/12/12 13:57:50;;;;;;;4.27;2.87;;;;;;;11.65;40.85;99729.44;6872803;28;20197;-85
2021/12/12 14:01:18;;;;;;;3.47;3.00;;;;;;;11.60;40.76;99707.56;6869803;28;20285;-85
2021/12/12 14:04:48;;;;;;;4.53;3.27;;;;;;;11.15;41.06;99713.16;6870182;28;20215;-85
2021/12/12 14:08:13;;;;;;;5.87;3.80;;;;;;;11.68;40.96;99712.81;6872196;28;20197;-84
2021/12/12 14:11:37;;;;;;;5.63;3.90;;;;;;;11.62;41.53;99699.25;6869130;28;20231;-85
2021/12/12 14:15:01;;;;;;;6.03;3.17;;;;;;;12.23;40.84;99714.88;6866545;28;20197;-84
2021/12/12 14:18:24;;;;;;;3.70;2.90;;;;;;;11.44;39.97;99629.41;6874326;28;20212;-85
2021/12/12 14:21:47;;;;;;;3.13;2.87;;;;;;;12.21;40.61;99712.34;6872369;28;20606;-85
2021/12/12 14:25:11;;;;;;;2.83;2.57;;;;;;;11.77;41.06;99740.56;6873390;28;20210;-84
2021/12/12 14:28:36;;;;;;;3.20;2.70;;;;;;;11.77;40.21;99694.66;6867429;28;20621;-85
2021/12/12 14:32:02;;;;;;;2.50;2.30;;;;;;;12.14;39.99;99721.44;6869918;28;20614;-84
2021/12/12 14:35:30;;;;;;;2.40;2.23;;;;;;;12.25;39.54;99740.69;6871063;28;20228;-87
2021/12/12 14:38:53;;;;;;;2.43;2.23;;;;;;;11.63;40.32;99739.56;6868647;28;20208;-82
2021/12/12 14:42:23;;;;;;;5.30;2.90;;;;;;;11.79;41.33;99747.47;6864528;28;20246;-84
2021/12/12 14:45:47;;;;;;;2.50;2.30;;;;;;;11.92;39.85;99715.19;6863655;28;20201;-83
2021/12/12 14:49:11;;;;;;;5.00;3.23;;;;;;;12.22;39.79;99748.38;6866385;28;20205;-85
2021/12/12 14:52:36;;;;;;;3.40;2.30;;;;;;;11.69;41.63;99763.13;6854834;28;20247;-85
2021/12/12 14:56:04;;;;;;;2.80;2.57;;;;;;;11.30;41.75;99715.84;6865132;28;20679;-84
2021/12/12 14:59:27;;;;;;;5.43;2.57;;;;;;;11.43;40.59;99757.38;6867350;28;20555;-84
2021/12/12 15:02:51;;;;;;;3.13;2.23;;;;;;;11.29;41.38;99744.72;6862885;28;20419;-84
2021/12/12 15:06:19;;;;;;;3.30;3.00;;;;;;;11.58;41.62;99742.00;6860875;28;20236;-82
2021/12/12 15:09:46;;;;;;;4.30;2.80;;;;;;;11.76;41.40;99761.34;6870360;28;20220;-84
2021/12/12 15:13:13;;;;;;;6.60;5.70;;;;;;;11.62;41.70;99758.69;6868653;28;20239;-82
2021/12/12 15:16:39;;;;;;;6.63;5.20;;;;;;;11.57;41.58;99748.41;6875718;28;20212;-83
2021/12/12 15:20:06;;;;;;;3.57;2.97;;;;;;;11.57;40.23;99669.25;6887757;28;20210;-83
2021/12/12 15:23:32;;;;;;;8.17;6.07;;;;;;;11.69;41.58;99760.44;6875105;28;20234;-83
2021/12/12 15:27:01;;;;;;;4.17;2.70;;;;;;;11.42;41.69;99763.78;6875728;28;20216;-84
2021/12/12 15:30:26;;;;;;;3.20;2.90;;;;;;;11.04;42.54;99775.69;6851609;28;20208;-85
2021/12/12 15:33:51;;;;;;;3.30;3.00;;;;;;;11.35;41.00;99746.66;6871708;28;20666;-84
2021/12/12 15:37:15;;;;;;;4.20;3.10;;;;;;;11.64;41.83;99770.94;6853754;28;20209;-84
2021/12/12 15:40:39;;;;;;;3.57;2.73;;;;;;;11.76;41.80;99763.22;6843520;29;20234;-83
2021/12/12 15:44:07;;;;;;;2.90;2.70;;;;;;;11.86;41.08;99763.75;6842544;29;20213;-84
2021/12/12 15:47:31;;;;;;;3.60;3.30;;;;;;;11.85;41.71;99764.75;6841408;29;20219;-84
2021/12/12 15:50:53;;;;;;;6.47;5.80;;;;;;;12.06;41.58;99765.66;6844188;28;20244;-83
2021/12/12 15:54:18;;;;;;;3.90;3.00;;;;;;;11.87;40.99;99768.94;6842068;29;20228;-85
2021/12/12 15:57:43;;;;;;;3.80;3.50;;;;;;;11.73;41.73;99760.88;6842532;29;20211;-84
2021/12/12 16:01:09;;;;;;;2.97;2.77;;;;;;;12.02;40.96;99769.78;6865321;28;20228;-86
2021/12/12 16:04:32;;;;;;;7.47;6.20;;;;;;;11.95;40.49;99760.75;6871893;28;20213;-86
2021/12/12 16:07:57;;;;;;;4.77;3.77;;;;;;;11.69;42.36;99754.19;6878543;28;20212;-87
2021/12/12 16:11:21;;;;;;;4.03;3.47;;;;;;;11.49;42.78;99786.31;6878995;28;20255;-87
2021/12/12 16:14:43;;;;;;;2.70;2.50;;;;;;;11.31;42.83;99769.66;6861460;28;20217;-87
2021/12/12 16:18:08;;;;;;;3.27;2.97;;;;;;;11.54;42.60;99778.50;6868532;28;20211;-87
2021/12/12 16:21:31;;;;;;;8.30;3.83;;;;;;;11.55;42.58;99769.38;6884410;28;20219;-87
2021/12/12 16:25:01;;;;;;;4.47;3.20;;;;;;;11.61;42.59;99792.94;6882268;28;20218;-85
2021/12/12 16:28:28;;;;;;;7.30;6.60;;;;;;;11.63;42.63;99792.78;6876898;28;20211;-86
2021/12/12 16:31:53;;;;;;;24.13;14.57;;;;;;;11.62;42.38;99799.22;6873679;28;20246;-85
2021/12/12 16:35:19;;;;;;;11.77;8.23;;;;;;;11.43;42.65;99797.88;6879586;28;20201;-88
2021/12/12 16:38:41;;;;;;;9.10;6.40;;;;;;;11.52;42.72;99795.91;6881657;28;20223;-87
2021/12/12 16:42:12;;;;;;;3.77;3.37;;;;;;;11.22;43.41;99815.84;6869629;28;20236;-87
2021/12/12 16:45:40;;;;;;;4.50;4.10;;;;;;;11.78;42.63;99805.22;6856947;29;20558;-85
2021/12/12 16:49:04;;;;;;;3.73;3.33;;;;;;;11.86;42.40;99809.69;6858070;29;20307;-87
2021/12/12 16:52:31;;;;;;;3.77;3.00;;;;;;;11.56;42.88;99797.22;6857634;29;20605;-84
2021/12/12 16:55:56;;;;;;;3.80;3.37;;;;;;;11.82;42.75;99809.25;6855522;28;20210;-88
2021/12/12 16:59:23;;;;;;;4.17;2.80;;;;;;;11.20;43.71;99780.06;6852650;28;20201;-87
2021/12/12 17:02:51;;;;;;;2.93;2.63;;;;;;;11.40;43.28;99809.03;6843386;29;20251;-88
2021/12/12 17:06:17;;;;;;;6.43;2.70;;;;;;;11.04;43.59;99702.00;6851014;28;20215;-87
2021/12/12 17:09:43;;;;;;;4.03;2.50;;;;;;;11.47;43.58;99811.84;6867329;28;20211;-86
2021/12/12 17:13:20;;;;;;;3.30;2.43;;;;;;;11.24;43.36;99746.28;6873588;28;20236;-88
2021/12/12 17:16:45;;;;;;;3.20;2.17;;;;;;;11.34;43.65;99808.94;6794165;29;20395;-85
2021/12/12 17:20:14;;;;;;;3.33;2.60;;;;;;;11.73;43.50;99813.06;6800370;29;20253;-85
2021/12/12 17:23:49;;;;;;;2.40;2.20;;;;;;;11.27;43.24;99748.63;6793891;29;20205;-85
2021/12/12 17:27:30;;;;;;;3.67;3.23;;;;;;;11.44;44.40;99799.53;6792681;29;20212;-86
2021/12/12 17:31:08;;;;;;;4.07;3.60;;;;;;;11.71;43.66;99809.72;6800521;29;20270;-85
2021/12/12 17:34:34;;;;;;;5.13;3.90;;;;;;;11.51;43.94;99799.63;6801360;29;20415;-86
2021/12/12 17:37:59;;;;;;;4.97;3.87;;;;;;;11.56;43.92;99797.22;6792780;29;20199;-86
2021/12/12 17:41:24;;;;;;;6.60;3.30;;;;;;;11.49;44.03;99780.91;6796908;29;20225;-85
2021/12/12 17:45:29;;;;;;;4.67;4.10;;;;;;;11.56;44.22;99789.94;6793193;29;20199;-87
2021/12/12 17:49:38;;;;;;;4.33;3.40;;;;;;;11.82;43.89;99800.28;6793798;29;20539;-86
2021/12/12 17:53:25;;;;;;;5.30;3.93;;;;;;;11.72;43.99;99794.34;6808178;28;20226;-87
2021/12/12 17:57:00;;;;;;;5.57;4.33;;;;;;;11.77;44.08;99789.19;6839063;28;20212;-87
2021/12/12 18:00:26;;;;;;;6.03;4.10;;;;;;;11.50;44.55;99776.34;6865361;28;20203;-86
2021/12/12 18:03:53;;;;;;;6.63;4.40;;;;;;;11.60;44.68;99787.72;6849515;28;20219;-85
2021/12/12 18:07:56;;;;;;;6.10;3.90;;;;;;;11.27;43.95;99700.84;6848192;29;20252;-86
2021/12/12 18:11:22;;;;;;;5.73;3.87;;;;;;;11.49;44.26;99797.13;6848048;29;20235;-85
2021/12/12 18:14:49;;;;;;;5.57;3.70;;;;;;;11.40;44.13;99743.41;6843529;29;20220;-86
2021/12/12 18:18:49;;;;;;;3.63;3.20;;;;;;;11.65;44.11;99786.16;6849930;29;20215;-86
2021/12/12 18:22:24;;;;;;;4.77;3.47;;;;;;;11.74;44.13;99805.81;6849707;28;20220;-86
2021/12/12 18:25:52;;;;;;;4.97;3.90;;;;;;;10.97;44.55;99736.97;6874709;28;20223;-86
2021/12/12 18:29:33;;;;;;;4.80;4.30;;;;;;;11.42;44.93;99789.94;6859376;28;20201;-86
2021/12/12 18:33:05;;;;;;;4.40;3.77;;;;;;;11.33;44.74;99796.47;6848864;29;20371;-87
2021/12/12 18:36:32;;;;;;;3.93;3.50;;;;;;;10.84;46.07;99806.06;6874418;28;20209;-87
2021/12/12 18:39:57;;;;;;;5.30;3.80;;;;;;;10.90;46.51;99795.41;6881197;28;20219;-86
2021/12/12 18:43:26;;;;;;;5.37;3.87;;;;;;;11.30;44.87;99791.44;6877943;28;20217;-87
2021/12/12 18:46:59;;;;;;;3.90;3.43;;;;;;;11.24;45.08;99816.47;6873964;28;20207;-86
2021/12/12 18:50:42;;;;;;;4.27;3.87;;;;;;;11.58;44.61;99806.81;6866655;28;20243;-86
2021/12/12 18:54:06;;;;;;;4.80;3.40;;;;;;;11.55;44.70;99817.13;6871523;28;20681;-85
2021/12/12 18:57:36;;;;;;;5.33;3.70;;;;;;;11.20;45.36;99809.75;6876445;28;20210;-84
2021/12/12 19:01:19;;;;;;;5.50;3.50;;;;;;;11.20;45.56;99812.47;6874868;28;20222;-85
2021/12/12 19:04:48;;;;;;;4.47;3.37;;;;;;;10.71;45.26;99733.03;6869751;28;20295;-87
2021/12/12 19:08:30;;;;;;;5.57;3.70;;;;;;;11.31;45.18;99815.56;6879005;28;20211;-87
2021/12/12 19:11:53;;;;;;;5.50;4.50;;;;;;;10.23;47.11;99773.88;6773673;29;20253;-87
2021/12/12 19:15:20;;;;;;;4.17;3.33;;;;;;;10.71;46.26;99789.66;6772259;29;20274;-85
2021/12/12 19:18:44;;;;;;;3.93;3.53;;;;;;;11.31;44.97;99815.56;6775759;29;20234;-86
2021/12/12 19:22:10;;;;;;;4.47;3.90;;;;;;;10.84;46.39;99797.97;6773691;29;20230;-86
2021/12/12 19:25:32;;;;;;;5.70;4.07;;;;;;;11.45;45.28;99817.41;6770335;29;20219;-85
2021/12/12 19:28:57;;;;;;;5.23;3.80;;;;;;;11.37;45.00;99817.50;6772546;29;20225;-85
2021/12/12 19:32:27;;;;;;;4.03;3.30;;;;;;;11.75;44.02;99818.28;6775092;29;20234;-85
2021/12/12 19:35:50;;;;;;;3.30;3.00;;;;;;;11.69;44.49;99814.44;6772111;29;20259;-86
2021/12/12 19:39:19;;;;;;;3.93;3.03;;;;;;;11.54;45.24;99796.56;6772993;29;20206;-85
2021/12/12 19:43:02;;;;;;;3.93;3.40;;;;;;;11.28;46.50;99812.41;6769156;29;20244;-87
2021/12/12 19:51:41;;;;;;;;;;;;;;;;;;;;;
2021/12/12 20:17:12;;;;;;;6.70;5.27;;;;;;;11.20;47.11;99826.81;6769055;29;20226;-86
2021/12/12 20:21:09;;;;;;;34.53;16.00;;;;;;;11.59;46.68;99834.69;6771402;29;20246;-86
2021/12/12 20:24:43;;;;;;;10.50;6.83;;;;;;;11.30;47.84;99821.97;6772092;29;21253;-87
2021/12/12 21:03:44;;;;;;;26.70;16.27;;;;;;;11.05;48.51;99835.91;6779394;29;20457;-88
2021/12/12 21:08:01;;;;;;;9.63;7.67;;;;;;;11.81;47.54;99834.56;6811217;28;20215;-85
2021/12/12 21:29:36;;;;;;;;;;;;;;;;;;;;;
2021/12/12 21:38:35;;;;;;;5.43;4.57;;;;;;;11.31;51.22;99837.16;6652873;29;20213;-86
2021/12/12 21:46:13;;;;;;;10.70;4.83;;;;;;;9.73;53.46;99770.78;6865169;28;20219;-89
